createdAt,value
2023-04-25T00:00:49.697Z,68.9
2023-04-25T00:01:50.819Z,68.9
2023-04-25T00:02:52.500Z,68.8
2023-04-25T00:03:55.720Z,68.8
2023-04-25T00:04:57.867Z,68.8
2023-04-25T00:05:59.448Z,68.9
2023-04-25T00:07:00.621Z,68.9
2023-04-25T00:08:01.803Z,68.8
2023-04-25T00:09:02.998Z,68.8
2023-04-25T00:10:04.163Z,68.8
2023-04-25T00:11:05.329Z,68.8
2023-04-25T00:12:06.494Z,68.8
2023-04-25T00:13:07.673Z,68.8
2023-04-25T00:14:08.861Z,68.8
2023-04-25T00:15:10.019Z,68.8
2023-04-25T00:16:11.337Z,68.8
2023-04-25T00:17:12.462Z,68.9
2023-04-25T00:18:13.626Z,68.9
2023-04-25T00:19:14.799Z,68.9
2023-04-25T00:20:15.954Z,68.9
2023-04-25T00:21:17.121Z,68.9
2023-04-25T00:22:18.284Z,68.9
2023-04-25T00:23:19.476Z,68.9
2023-04-25T00:24:20.616Z,69
2023-04-25T00:25:21.778Z,69
2023-04-25T00:26:22.948Z,69
2023-04-25T00:27:24.116Z,69
2023-04-25T00:28:25.284Z,69.1
2023-04-25T00:29:26.449Z,69.1
2023-04-25T00:30:27.610Z,69.1
2023-04-25T00:31:28.917Z,69.1
2023-04-25T00:32:30.138Z,69.1
2023-04-25T00:33:31.289Z,69.1
2023-04-25T00:34:32.463Z,69.2
2023-04-25T00:35:33.625Z,69.2
2023-04-25T00:36:34.800Z,69.2
2023-04-25T00:37:35.970Z,69.2
2023-04-25T00:38:37.130Z,69.2
2023-04-25T00:39:38.296Z,69.2
2023-04-25T00:40:39.453Z,69.2
2023-04-25T00:41:40.631Z,69.3
2023-04-25T00:42:41.789Z,69.3
2023-04-25T00:43:42.970Z,69.3
2023-04-25T00:44:44.137Z,69.3
2023-04-25T00:45:45.300Z,69.3
2023-04-25T00:46:46.657Z,69.3
2023-04-25T00:47:47.869Z,69.3
2023-04-25T00:48:49.015Z,69.4
2023-04-25T00:49:50.175Z,69.4
2023-04-25T00:50:51.344Z,69.4
2023-04-25T00:51:52.503Z,69.4
2023-04-25T00:52:53.670Z,69.5
2023-04-25T00:53:54.906Z,69.5
2023-04-25T00:54:56.071Z,69.6
2023-04-25T00:55:57.241Z,69.6
2023-04-25T00:56:58.413Z,69.6
2023-04-25T00:57:59.569Z,69.6
2023-04-25T00:59:00.747Z,69.7
2023-04-25T01:00:01.908Z,69.7
2023-04-25T01:01:03.216Z,69.7
2023-04-25T01:02:04.566Z,69.8
2023-04-25T01:03:06.211Z,69.8
2023-04-25T01:04:07.986Z,69.9
2023-04-25T01:05:09.235Z,69.9
2023-04-25T01:06:10.398Z,70
2023-04-25T01:07:11.563Z,70
2023-04-25T01:08:12.724Z,70.1
2023-04-25T01:09:13.894Z,70.1
2023-04-25T01:10:15.052Z,70.2
2023-04-25T01:11:16.223Z,70.2
2023-04-25T01:12:17.392Z,70.3
2023-04-25T01:13:18.553Z,70.3
2023-04-25T01:14:19.732Z,70.4
2023-04-25T01:15:20.890Z,70.4
2023-04-25T01:16:22.152Z,70.5
2023-04-25T01:17:23.361Z,70.5
2023-04-25T01:18:24.497Z,70.6
2023-04-25T01:19:25.664Z,70.7
2023-04-25T01:20:26.870Z,70.7
2023-04-25T01:21:28.065Z,70.8
2023-04-25T01:22:29.223Z,70.8
2023-04-25T01:23:30.426Z,70.9
2023-04-25T01:24:31.607Z,71
2023-04-25T01:25:32.776Z,71.1
2023-04-25T01:26:33.931Z,71.1
2023-04-25T01:27:35.114Z,71.2
2023-04-25T01:28:36.256Z,71.3
2023-04-25T01:29:37.456Z,71.4
2023-04-25T01:30:38.652Z,71.4
2023-04-25T01:31:39.925Z,71.5
2023-04-25T01:32:41.174Z,71.6
2023-04-25T01:33:42.323Z,71.6
2023-04-25T01:34:43.507Z,71.7
2023-04-25T01:35:44.653Z,71.7
2023-04-25T01:36:45.822Z,71.8
2023-04-25T01:37:46.985Z,71.8
2023-04-25T01:38:48.151Z,71.9
2023-04-25T01:39:49.320Z,71.9
2023-04-25T01:40:50.520Z,71.9
2023-04-25T01:41:51.716Z,72
2023-04-25T01:42:52.883Z,72
2023-04-25T01:43:54.346Z,72
2023-04-25T01:44:55.512Z,72
2023-04-25T01:45:56.716Z,72
2023-04-25T01:46:57.861Z,72
2023-04-25T01:47:59.163Z,72
2023-04-25T01:49:00.312Z,72.1
2023-04-25T01:50:01.473Z,72.1
2023-04-25T01:51:02.648Z,72.1
2023-04-25T01:52:03.803Z,72.1
2023-04-25T01:53:04.966Z,72.1
2023-04-25T01:54:06.139Z,72.1
2023-04-25T01:55:07.347Z,72.1
2023-04-25T01:56:08.507Z,72.1
2023-04-25T01:57:09.673Z,72.1
2023-04-25T01:58:10.932Z,72.2
2023-04-25T01:59:12.188Z,72.2
2023-04-25T02:00:13.346Z,72.2
2023-04-25T02:01:14.648Z,72.2
2023-04-25T02:02:15.952Z,72.2
2023-04-25T02:03:17.659Z,72.2
2023-04-25T02:04:19.698Z,72.2
2023-04-25T02:05:21.158Z,72.2
2023-04-25T02:06:22.326Z,72.2
2023-04-25T02:07:23.495Z,72.2
2023-04-25T02:08:24.652Z,72.2
2023-04-25T02:09:25.844Z,72.2
2023-04-25T02:10:26.982Z,72.1
2023-04-25T02:11:28.148Z,72.2
2023-04-25T02:12:29.312Z,72.2
2023-04-25T02:13:30.481Z,72.2
2023-04-25T02:14:31.647Z,72.2
2023-04-25T02:15:32.886Z,72.2
2023-04-25T02:16:34.371Z,72.2
2023-04-25T02:17:35.643Z,72.2
2023-04-25T02:18:36.866Z,72.2
2023-04-25T02:19:37.995Z,72.2
2023-04-25T02:20:39.160Z,72.2
2023-04-25T02:21:40.331Z,72.2
2023-04-25T02:22:41.486Z,72.2
2023-04-25T02:23:42.722Z,72.2
2023-04-25T02:24:43.860Z,72.3
2023-04-25T02:25:45.023Z,72.3
2023-04-25T02:26:46.184Z,72.3
2023-04-25T02:27:47.362Z,72.4
2023-04-25T02:28:48.518Z,72.4
2023-04-25T02:29:49.699Z,72.4
2023-04-25T02:30:50.864Z,72.4
2023-04-25T02:31:52.319Z,72.5
2023-04-25T02:32:53.667Z,72.5
2023-04-25T02:33:54.862Z,72.5
2023-04-25T02:34:55.994Z,72.5
2023-04-25T02:35:57.166Z,72.6
2023-04-25T02:36:58.372Z,72.6
2023-04-25T02:37:59.542Z,72.6
2023-04-25T02:39:00.694Z,72.7
2023-04-25T02:40:01.871Z,72.7
2023-04-25T02:41:03.050Z,72.7
2023-04-25T02:42:04.200Z,72.8
2023-04-25T02:43:05.369Z,72.8
2023-04-25T02:44:06.545Z,72.8
2023-04-25T02:45:07.705Z,72.9
2023-04-25T02:46:08.902Z,72.9
2023-04-25T02:47:10.163Z,72.9
2023-04-25T02:48:11.404Z,73
2023-04-25T02:49:12.571Z,73
2023-04-25T02:50:13.713Z,73
2023-04-25T02:51:14.884Z,73.1
2023-04-25T02:52:16.041Z,73.1
2023-04-25T02:53:17.206Z,73.2
2023-04-25T02:54:18.369Z,73.2
2023-04-25T02:55:19.540Z,73.2
2023-04-25T02:56:20.704Z,73.3
2023-04-25T02:57:21.872Z,73.3
2023-04-25T02:58:23.034Z,73.3
2023-04-25T02:59:24.226Z,73.3
2023-04-25T03:00:25.359Z,73.4
2023-04-25T03:01:26.644Z,73.4
2023-04-25T03:02:27.931Z,73.4
2023-04-25T03:03:29.441Z,73.4
2023-04-25T03:04:30.746Z,73.5
2023-04-25T03:05:31.918Z,73.5
2023-04-25T03:06:33.076Z,73.5
2023-04-25T03:07:34.244Z,73.6
2023-04-25T03:08:35.416Z,73.6
2023-04-25T03:09:36.570Z,73.7
2023-04-25T03:10:37.738Z,73.7
2023-04-25T03:11:38.904Z,73.7
2023-04-25T03:12:40.074Z,73.8
2023-04-25T03:13:41.234Z,73.8
2023-04-25T03:14:42.425Z,73.9
2023-04-25T03:15:43.562Z,73.9
2023-04-25T03:16:44.756Z,74
2023-04-25T03:17:46.002Z,74
2023-04-25T03:18:47.184Z,74.1
2023-04-25T03:19:48.382Z,74.1
2023-04-25T03:20:49.525Z,74.1
2023-04-25T03:21:50.695Z,74.2
2023-04-25T03:22:51.876Z,74.2
2023-04-25T03:23:53.489Z,74.3
2023-04-25T03:24:54.631Z,74.3
2023-04-25T03:25:55.811Z,74.4
2023-04-25T03:26:56.961Z,74.4
2023-04-25T03:27:58.120Z,74.4
2023-04-25T03:28:59.290Z,74.4
2023-04-25T03:30:00.479Z,74.5
2023-04-25T03:31:01.643Z,74.5
2023-04-25T03:32:02.993Z,74.5
2023-04-25T03:33:04.362Z,74.6
2023-04-25T03:34:05.559Z,74.6
2023-04-25T03:35:06.780Z,74.6
2023-04-25T03:36:07.927Z,74.6
2023-04-25T03:37:09.099Z,74.7
2023-04-25T03:38:10.261Z,74.7
2023-04-25T03:39:11.428Z,74.7
2023-04-25T03:40:12.596Z,74.7
2023-04-25T03:41:13.762Z,74.8
2023-04-25T03:42:14.927Z,74.8
2023-04-25T03:43:17.039Z,74.8
2023-04-25T03:44:18.764Z,74.8
2023-04-25T03:45:19.922Z,74.9
2023-04-25T03:46:21.142Z,74.9
2023-04-25T03:47:22.369Z,74.9
2023-04-25T03:48:23.580Z,74.9
2023-04-25T03:49:24.740Z,74.9
2023-04-25T03:50:25.947Z,74.9
2023-04-25T03:51:27.134Z,75
2023-04-25T03:52:28.286Z,75
2023-04-25T03:53:29.445Z,75
2023-04-25T03:54:30.609Z,75
2023-04-25T03:55:31.769Z,75
2023-04-25T03:56:32.947Z,75.1
2023-04-25T03:57:34.105Z,75.1
2023-04-25T03:58:35.278Z,75.1
2023-04-25T03:59:36.453Z,75.1
2023-04-25T04:00:37.599Z,75.1
2023-04-25T04:01:38.768Z,75.2
2023-04-25T04:02:41.935Z,75.2
2023-04-25T04:03:45.984Z,75.3
2023-04-25T04:04:48.190Z,75.3
2023-04-25T04:05:50.260Z,75.4
2023-04-25T04:06:51.492Z,75.4
2023-04-25T04:07:52.665Z,75.4
2023-04-25T04:08:53.810Z,75.4
2023-04-25T04:09:54.980Z,75.4
2023-04-25T04:10:56.141Z,75.4
2023-04-25T04:11:57.305Z,75.4
2023-04-25T04:12:58.473Z,75.4
2023-04-25T04:13:59.646Z,75.4
2023-04-25T04:15:00.855Z,75.4
2023-04-25T04:16:02.107Z,75.4
2023-04-25T04:17:03.276Z,75.3
2023-04-25T04:18:04.812Z,75.3
2023-04-25T04:19:05.981Z,75.3
2023-04-25T04:20:07.145Z,75.3
2023-04-25T04:21:08.342Z,75.3
2023-04-25T04:22:09.485Z,75.2
2023-04-25T04:23:10.644Z,75.2
2023-04-25T04:24:11.826Z,75.2
2023-04-25T04:25:12.998Z,75.1
2023-04-25T04:26:14.155Z,75.1
2023-04-25T04:27:15.321Z,75.1
2023-04-25T04:28:16.480Z,75.1
2023-04-25T04:29:17.648Z,75
2023-04-25T04:30:18.813Z,75
2023-04-25T04:31:20.156Z,75
2023-04-25T04:32:21.420Z,75
2023-04-25T04:33:22.589Z,74.9
2023-04-25T04:34:23.804Z,74.9
2023-04-25T04:35:24.944Z,74.9
2023-04-25T04:36:26.134Z,74.9
2023-04-25T04:37:27.278Z,74.9
2023-04-25T04:38:28.450Z,74.9
2023-04-25T04:39:29.610Z,74.9
2023-04-25T04:40:30.769Z,74.9
2023-04-25T04:41:31.940Z,74.9
2023-04-25T04:42:33.101Z,74.9
2023-04-25T04:43:34.274Z,74.9
2023-04-25T04:44:35.452Z,74.9
2023-04-25T04:45:36.593Z,74.9
2023-04-25T04:46:37.806Z,74.9
2023-04-25T04:47:39.146Z,74.9
2023-04-25T04:48:40.306Z,74.9
2023-04-25T04:49:41.472Z,74.9
2023-04-25T04:50:42.638Z,74.9
2023-04-25T04:51:43.828Z,74.9
2023-04-25T04:52:44.994Z,74.9
2023-04-25T04:53:46.153Z,74.9
2023-04-25T04:54:47.318Z,74.9
2023-04-25T04:55:48.483Z,74.9
2023-04-25T04:56:49.653Z,74.9
2023-04-25T04:57:50.841Z,74.9
2023-04-25T04:58:52.013Z,74.9
2023-04-25T04:59:53.180Z,74.9
2023-04-25T05:00:54.432Z,74.9
2023-04-25T05:01:55.599Z,74.9
2023-04-25T05:02:57.116Z,75
2023-04-25T05:03:59.845Z,75
2023-04-25T05:05:01.103Z,75
2023-04-25T05:06:02.273Z,75
2023-04-25T05:07:03.472Z,75
2023-04-25T05:08:04.604Z,75
2023-04-25T05:09:05.825Z,75
2023-04-25T05:10:07.041Z,75
2023-04-25T05:11:08.203Z,75
2023-04-25T05:12:09.371Z,75
2023-04-25T05:13:10.534Z,75
2023-04-25T05:14:11.700Z,75
2023-04-25T05:15:15.182Z,75
2023-04-25T05:16:16.487Z,75
2023-04-25T05:17:17.639Z,75
2023-04-25T05:18:18.807Z,75
2023-04-25T05:19:19.969Z,75
2023-04-25T05:20:21.143Z,75
2023-04-25T05:21:22.669Z,75
2023-04-25T05:22:24.094Z,75
2023-04-25T05:23:25.226Z,75
2023-04-25T05:24:26.393Z,75
2023-04-25T05:25:27.560Z,75
2023-04-25T05:26:28.716Z,75
2023-04-25T05:27:32.654Z,75
2023-04-25T05:28:33.828Z,75
2023-04-25T05:29:34.994Z,75
2023-04-25T05:30:36.153Z,75
2023-04-25T05:31:37.362Z,75
2023-04-25T05:32:38.599Z,75
2023-04-25T05:33:39.774Z,75
2023-04-25T05:34:40.939Z,74.9
2023-04-25T05:35:42.101Z,74.9
2023-04-25T05:36:43.269Z,74.9
2023-04-25T05:37:44.495Z,74.8
2023-04-25T05:38:45.622Z,74.8
2023-04-25T05:39:46.794Z,74.8
2023-04-25T05:40:47.960Z,74.8
2023-04-25T05:41:49.115Z,74.8
2023-04-25T05:42:50.285Z,74.7
2023-04-25T05:43:55.488Z,74.7
2023-04-25T05:44:58.212Z,74.7
2023-04-25T05:45:59.439Z,74.7
2023-04-25T05:47:00.596Z,74.7
2023-04-25T05:48:01.931Z,74.7
2023-04-25T05:49:03.090Z,74.7
2023-04-25T05:50:04.247Z,74.7
2023-04-25T05:51:05.423Z,74.7
2023-04-25T05:52:06.582Z,74.7
2023-04-25T05:53:07.781Z,74.7
2023-04-25T05:54:08.911Z,74.7
2023-04-25T05:55:10.086Z,74.7
2023-04-25T05:56:11.259Z,74.7
2023-04-25T05:57:12.406Z,74.6
2023-04-25T05:58:13.576Z,74.6
2023-04-25T05:59:14.735Z,74.6
2023-04-25T06:00:15.923Z,74.6
2023-04-25T06:01:27.000Z,74.5
2023-04-25T06:03:38.268Z,74.4
2023-04-25T06:04:42.013Z,74.3
2023-04-25T06:08:15.978Z,74.2
2023-04-25T06:09:17.107Z,74.2
2023-04-25T06:10:24.548Z,74.2
2023-04-25T06:11:28.557Z,74.2
2023-04-25T06:12:29.751Z,74.1
2023-04-25T06:13:42.813Z,74.1
2023-04-25T06:14:46.886Z,74.1
2023-04-25T06:15:49.185Z,74
2023-04-25T06:16:56.484Z,73.9
2023-04-25T06:17:57.974Z,73.9
2023-04-25T06:18:59.221Z,73.8
2023-04-25T06:20:08.344Z,73.8
2023-04-25T06:21:09.486Z,73.8
2023-04-25T06:22:10.640Z,73.8
2023-04-25T06:23:11.975Z,73.8
2023-04-25T06:24:14.646Z,73.8
2023-04-25T06:25:17.830Z,73.8
2023-04-25T06:26:19.119Z,73.8
2023-04-25T06:27:32.885Z,73.8
2023-04-25T06:28:51.733Z,73.8
2023-04-25T06:29:56.258Z,73.9
2023-04-25T06:31:18.390Z,73.9
2023-04-25T06:32:29.317Z,74
2023-04-25T06:33:38.449Z,74
2023-04-25T06:34:48.183Z,74
2023-04-25T06:35:52.280Z,73.9
2023-04-25T06:36:56.620Z,73.8
2023-04-25T06:37:57.804Z,73.8
2023-04-25T06:39:01.553Z,73.7
2023-04-25T06:40:05.913Z,73.6
2023-04-25T06:41:12.723Z,73.5
2023-04-25T06:42:13.899Z,73.3
2023-04-25T06:43:17.909Z,73.3
2023-04-25T06:44:27.658Z,73.2
2023-04-25T06:45:28.829Z,73.1
2023-04-25T06:46:35.200Z,73.1
2023-04-25T06:47:45.025Z,73
2023-04-25T06:48:54.385Z,73
2023-04-25T06:50:00.547Z,72.9
2023-04-25T06:51:24.779Z,72.9
2023-04-25T06:52:25.937Z,72.9
2023-04-25T06:53:29.394Z,73
2023-04-25T06:59:08.567Z,73
2023-04-25T07:00:32.569Z,73
2023-04-25T07:01:34.061Z,73.1
2023-04-25T07:02:38.424Z,73
2023-04-25T07:03:42.862Z,72.9
2023-04-25T07:04:47.231Z,72.9
2023-04-25T07:05:54.420Z,72.9
2023-04-25T07:06:55.774Z,72.8
2023-04-25T07:07:59.808Z,72.7
2023-04-25T07:09:09.930Z,72.6
2023-04-25T07:10:19.128Z,72.5
2023-04-25T07:11:26.161Z,72.3
2023-04-25T07:12:39.070Z,72.2
2023-04-25T07:13:40.224Z,72.1
2023-04-25T07:14:52.959Z,71.8
2023-04-25T07:16:03.614Z,71.6
2023-04-25T07:17:10.430Z,71.3
2023-04-25T07:18:14.495Z,71.1
2023-04-25T07:20:53.768Z,70.9
2023-04-25T07:22:02.519Z,71
2023-04-25T07:23:06.489Z,71.2
2023-04-25T07:24:07.710Z,71.3
2023-04-25T07:25:16.777Z,71.2
2023-04-25T07:26:17.990Z,70.7
2023-04-25T07:27:22.216Z,70.2
2023-04-25T07:28:23.402Z,70.4
2023-04-25T07:29:55.505Z,70.5
2023-04-25T07:30:59.731Z,70.7
2023-04-25T07:32:07.032Z,70.6
2023-04-25T07:33:08.586Z,70.4
2023-04-25T07:34:14.895Z,69.9
2023-04-25T07:35:18.915Z,70
2023-04-25T07:36:23.022Z,70.2
2023-04-25T07:39:58.951Z,70.3
2023-04-25T07:41:02.955Z,70.2
2023-04-25T07:42:11.501Z,70.1
2023-04-25T07:43:22.824Z,70
2023-04-25T07:45:17.764Z,69.9
2023-04-25T07:46:22.155Z,68.6
2023-04-25T07:47:39.906Z,68.1
2023-04-25T07:48:41.105Z,67.7
2023-04-25T07:49:55.274Z,67.5
2023-04-25T07:51:07.441Z,67.8
2023-04-25T07:52:08.668Z,68
2023-04-25T07:53:20.932Z,67.7
2023-04-25T07:54:24.973Z,66.8
2023-04-25T07:55:34.625Z,67.4
2023-04-25T07:58:12.106Z,67.5
2023-04-25T07:59:43.266Z,67.1
2023-04-25T08:00:50.435Z,67.1
2023-04-25T08:01:51.687Z,66.6
2023-04-25T08:02:56.056Z,66.2
2023-04-25T08:03:58.223Z,66.2
2023-04-25T08:05:03.212Z,66
2023-04-25T08:06:09.584Z,65.7
2023-04-25T08:07:27.364Z,65.7
2023-04-25T08:08:36.127Z,65.6
2023-04-25T08:09:42.220Z,65.5
2023-04-25T08:10:51.331Z,65.3
2023-04-25T08:12:00.827Z,64.6
2023-04-25T08:14:14.550Z,64
2023-04-25T08:15:20.836Z,63.7
2023-04-25T08:16:51.439Z,63.7
2023-04-25T08:17:55.580Z,63.7
2023-04-25T08:18:56.801Z,63.6
2023-04-25T08:22:18.517Z,62.8
2023-04-25T08:23:28.580Z,62.6
2023-04-25T08:24:32.701Z,62.4
2023-04-25T08:25:33.962Z,62.3
2023-04-25T08:26:36.053Z,62.1
2023-04-25T08:27:39.878Z,62
2023-04-25T08:28:43.909Z,61.8
2023-04-25T08:31:05.011Z,61.5
2023-04-25T08:32:06.168Z,61.4
2023-04-25T08:33:07.505Z,61.2
2023-04-25T08:34:08.711Z,61.1
2023-04-25T08:35:09.878Z,60.9
2023-04-25T08:36:11.042Z,60.6
2023-04-25T08:37:12.205Z,60.4
2023-04-25T08:38:13.380Z,60.1
2023-04-25T08:39:14.550Z,59.8
2023-04-25T08:40:15.747Z,59.6
2023-04-25T08:41:16.894Z,59.3
2023-04-25T08:42:18.052Z,59.2
2023-04-25T08:43:19.246Z,59.3
2023-04-25T08:44:20.431Z,59.2
2023-04-25T08:45:21.566Z,59.1
2023-04-25T08:46:22.788Z,59.1
2023-04-25T08:47:24.090Z,59
2023-04-25T08:48:25.556Z,58.9
2023-04-25T08:49:26.754Z,58.8
2023-04-25T08:50:27.977Z,58
2023-04-25T08:51:29.136Z,57.6
2023-04-25T08:52:30.294Z,56.7
2023-04-25T08:53:32.035Z,56.1
2023-04-25T08:54:40.411Z,57
2023-04-25T08:55:42.775Z,57
2023-04-25T08:56:43.943Z,57.7
2023-04-25T08:57:45.103Z,57.4
2023-04-25T08:58:46.268Z,57.6
2023-04-25T08:59:47.702Z,57.8
2023-04-25T09:00:48.950Z,57.9
2023-04-25T09:01:50.115Z,58
2023-04-25T09:02:51.924Z,58
2023-04-25T09:03:53.695Z,58
2023-04-25T09:04:55.048Z,58
2023-04-25T09:05:56.220Z,57.9
2023-04-25T09:06:57.622Z,57.9
2023-04-25T09:07:58.795Z,57.8
2023-04-25T09:08:59.962Z,57.8
2023-04-25T09:10:01.126Z,57.7
2023-04-25T09:11:02.299Z,57.6
2023-04-25T09:12:03.463Z,57.4
2023-04-25T09:13:04.631Z,57.3
2023-04-25T09:14:05.794Z,57.3
2023-04-25T09:15:06.959Z,57.3
2023-04-25T09:16:08.131Z,57.4
2023-04-25T09:17:09.648Z,57.5
2023-04-25T09:18:10.922Z,57.5
2023-04-25T09:19:12.173Z,57.5
2023-04-25T09:20:13.369Z,57.5
2023-04-25T09:21:15.953Z,57.4
2023-04-25T09:22:17.126Z,57.3
2023-04-25T09:23:18.297Z,57.2
2023-04-25T09:24:19.471Z,57.1
2023-04-25T09:25:20.625Z,57.1
2023-04-25T09:26:21.788Z,57
2023-04-25T09:27:22.953Z,56.9
2023-04-25T09:28:24.117Z,56.8
2023-04-25T09:29:25.285Z,56.6
2023-04-25T09:30:26.450Z,56.5
2023-04-25T09:31:27.771Z,56.3
2023-04-25T09:32:29.648Z,56.1
2023-04-25T09:33:30.854Z,55.6
2023-04-25T09:34:32.136Z,55.1
2023-04-25T09:35:33.444Z,55.1
2023-04-25T09:36:34.790Z,55.3
2023-04-25T09:37:36.087Z,55.7
2023-04-25T09:38:37.298Z,55.2
2023-04-25T09:39:38.461Z,54.4
2023-04-25T09:40:39.628Z,53.8
2023-04-25T09:41:40.796Z,53.4
2023-04-25T09:42:42.025Z,54.1
2023-04-25T09:43:43.170Z,54.5
2023-04-25T09:44:44.413Z,54.8
2023-04-25T09:45:45.711Z,55
2023-04-25T09:46:47.259Z,55.1
2023-04-25T09:47:48.494Z,55.2
2023-04-25T09:48:49.642Z,55.3
2023-04-25T09:49:50.832Z,55.3
2023-04-25T09:50:52.266Z,55.3
2023-04-25T09:51:53.429Z,55.3
2023-04-25T09:52:54.597Z,55.2
2023-04-25T09:53:55.768Z,55.1
2023-04-25T09:54:56.929Z,55.1
2023-04-25T09:55:58.094Z,55.1
2023-04-25T09:56:59.264Z,55
2023-04-25T09:58:00.428Z,55
2023-04-25T09:59:01.593Z,54.9
2023-04-25T10:00:02.759Z,54.8
2023-04-25T10:01:04.174Z,54.6
2023-04-25T10:02:05.452Z,54.5
2023-04-25T10:03:06.835Z,54.4
2023-04-25T10:04:08.662Z,54.2
2023-04-25T10:05:10.439Z,54
2023-04-25T10:06:11.945Z,53.9
2023-04-25T10:07:13.108Z,53.7
2023-04-25T10:08:14.287Z,53.6
2023-04-25T10:09:15.436Z,53.6
2023-04-25T10:10:16.685Z,53.5
2023-04-25T10:11:17.854Z,53.5
2023-04-25T10:12:19.019Z,53.5
2023-04-25T10:13:20.189Z,53.1
2023-04-25T10:14:21.353Z,52.3
2023-04-25T10:15:22.516Z,51.9
2023-04-25T10:16:23.879Z,51.7
2023-04-25T10:17:25.223Z,51.9
2023-04-25T10:18:26.378Z,52
2023-04-25T10:19:27.536Z,52
2023-04-25T10:20:28.747Z,52
2023-04-25T10:21:30.010Z,51.9
2023-04-25T10:22:31.192Z,51.8
2023-04-25T10:23:32.356Z,51.7
2023-04-25T10:24:33.509Z,51.6
2023-04-25T10:25:34.669Z,51.4
2023-04-25T10:26:35.839Z,51.3
2023-04-25T10:27:37.028Z,51.2
2023-04-25T10:28:38.192Z,51
2023-04-25T10:29:39.795Z,50.9
2023-04-25T10:30:40.959Z,50.8
2023-04-25T10:31:42.496Z,51
2023-04-25T10:32:43.768Z,49.7
2023-04-25T10:33:44.935Z,49.3
2023-04-25T10:34:46.102Z,49.2
2023-04-25T10:35:47.325Z,49.1
2023-04-25T10:36:48.487Z,48.8
2023-04-25T10:37:49.649Z,48.6
2023-04-25T10:38:50.815Z,48.6
2023-04-25T10:39:51.983Z,48.3
2023-04-25T10:40:53.147Z,48.2
2023-04-25T10:41:54.317Z,48.5
2023-04-25T10:42:55.480Z,47.3
2023-04-25T10:43:56.645Z,46.5
2023-04-25T10:44:57.815Z,45.9
2023-04-25T10:45:58.978Z,45.2
2023-04-25T10:47:00.223Z,44.3
2023-04-25T10:48:01.595Z,43.9
2023-04-25T10:49:02.799Z,43.4
2023-04-25T10:50:03.959Z,42.9
2023-04-25T10:51:05.159Z,43.3
2023-04-25T10:52:06.342Z,43.2
2023-04-25T10:53:07.551Z,43.8
2023-04-25T10:54:08.681Z,42.9
2023-04-25T10:55:09.845Z,42.1
2023-04-25T10:56:14.690Z,41.7
2023-04-25T10:57:15.846Z,42
2023-04-25T10:58:17.023Z,40.5
2023-04-25T10:59:18.182Z,41.2
2023-04-25T11:00:19.707Z,41.4
2023-04-25T11:01:21.098Z,41.6
2023-04-25T11:02:22.540Z,41.7
2023-04-25T11:03:24.640Z,41.7
2023-04-25T11:04:27.247Z,41.7
2023-04-25T11:05:28.847Z,41.7
2023-04-25T11:06:30.044Z,41.6
2023-04-25T11:07:31.183Z,41.5
2023-04-25T11:08:32.353Z,41.4
2023-04-25T11:09:33.512Z,41.4
2023-04-25T11:10:34.811Z,41.4
2023-04-25T11:11:36.004Z,41.3
2023-04-25T11:12:37.161Z,41.3
2023-04-25T11:13:38.329Z,41.3
2023-04-25T11:15:40.439Z,41.5
2023-04-25T11:16:41.625Z,41.7
2023-04-25T11:17:43.115Z,41.9
2023-04-25T11:18:44.290Z,42.1
2023-04-25T11:19:45.728Z,42.3
2023-04-25T11:20:46.904Z,42.4
2023-04-25T11:21:48.084Z,42.6
2023-04-25T11:22:53.275Z,42.9
2023-04-25T11:23:55.118Z,43.1
2023-04-25T11:24:56.284Z,43.3
2023-04-25T11:25:57.450Z,43.5
2023-04-25T11:26:58.613Z,43.7
2023-04-25T11:27:59.781Z,44
2023-04-25T11:29:03.089Z,43.5
2023-04-25T11:30:04.256Z,43.1
2023-04-25T11:31:05.922Z,42.7
2023-04-25T11:32:07.178Z,42.5
2023-04-25T11:33:08.475Z,42.1
2023-04-25T11:34:09.667Z,41.8
2023-04-25T11:35:10.824Z,41.4
2023-04-25T11:36:11.991Z,41
2023-04-25T11:37:13.238Z,40.7
2023-04-25T11:38:14.516Z,40.5
2023-04-25T11:39:15.681Z,40.2
2023-04-25T11:40:16.842Z,40
2023-04-25T11:41:18.006Z,39.6
2023-04-25T11:42:19.182Z,38.9
2023-04-25T11:43:22.454Z,39.3
2023-04-25T11:44:23.621Z,39.3
2023-04-25T11:45:24.816Z,39.4
2023-04-25T11:46:26.033Z,39.5
2023-04-25T11:47:27.227Z,39.5
2023-04-25T11:48:28.373Z,39.4
2023-04-25T11:49:29.897Z,39.5
2023-04-25T11:50:31.634Z,39.5
2023-04-25T11:51:32.796Z,39.5
2023-04-25T11:52:34.035Z,39.6
2023-04-25T11:53:35.170Z,39.7
2023-04-25T11:54:36.359Z,39.8
2023-04-25T11:55:37.517Z,39.9
2023-04-25T11:56:38.689Z,40
2023-04-25T11:57:39.854Z,40.1
2023-04-25T11:58:41.021Z,40.2
2023-04-25T11:59:42.185Z,40.4
2023-04-25T12:00:51.485Z,41
2023-04-25T12:02:49.297Z,40.1
2023-04-25T12:04:04.843Z,40.7
2023-04-25T12:05:34.409Z,40.2
2023-04-25T12:06:38.931Z,40.3
2023-04-25T12:09:16.633Z,39
2023-04-25T12:10:41.658Z,39.3
2023-04-25T12:13:02.427Z,38.4
2023-04-25T12:14:11.512Z,37.6
2023-04-25T12:18:42.752Z,36.6
2023-04-25T12:19:58.769Z,36.6
2023-04-25T12:22:08.069Z,36.7
2023-04-25T13:01:48.061Z,36.8
2023-04-25T13:06:51.092Z,42.1
2023-04-25T13:10:45.871Z,42.2
2023-04-25T13:15:33.933Z,43
2023-04-25T13:17:17.316Z,43.3
2023-04-25T13:18:41.162Z,43.5
2023-04-25T13:20:12.269Z,43.6
2023-04-25T13:22:07.323Z,43.7
2023-04-25T14:01:58.857Z,43.9
2023-04-25T14:03:28.290Z,45.7
2023-04-25T14:04:58.262Z,45.7
2023-04-25T14:08:48.923Z,45.6
2023-04-25T14:13:40.611Z,46
2023-04-25T14:14:47.308Z,46.1
2023-04-25T14:16:31.158Z,46.1
2023-04-25T14:17:47.293Z,46.4
2023-04-25T14:19:01.242Z,46.5
2023-04-25T14:21:20.818Z,46.6
2023-04-25T14:22:32.871Z,46.8
2023-04-25T14:23:48.176Z,46.8
2023-04-25T14:24:57.136Z,46.8
2023-04-25T14:26:38.117Z,46.8
2023-04-25T14:28:14.653Z,46.8
2023-04-25T14:30:43.326Z,46.2
2023-04-25T14:31:52.949Z,46.1
2023-04-25T14:33:43.307Z,46
2023-04-25T14:37:42.919Z,45.6
2023-04-25T14:38:51.261Z,45.5
2023-04-25T14:40:05.492Z,45.5
2023-04-25T14:46:23.716Z,45.3
2023-04-25T14:47:43.820Z,44.7
2023-04-25T14:50:21.732Z,43.4
2023-04-25T14:52:50.595Z,43.2
2023-04-25T14:54:16.342Z,43.2
2023-04-25T14:56:47.173Z,43.5
2023-04-25T14:58:02.995Z,43.4
2023-04-25T14:59:42.134Z,43.6
2023-04-25T15:01:06.858Z,43.8
2023-04-25T15:02:23.264Z,43.9
2023-04-25T15:04:00.486Z,44
2023-04-25T15:05:55.228Z,44
2023-04-25T15:07:05.288Z,44.1
2023-04-25T15:08:19.246Z,44.1
2023-04-25T15:09:45.663Z,44.1
2023-04-25T15:10:57.970Z,44.3
2023-04-25T15:12:10.563Z,44.4
2023-04-25T15:15:49.334Z,44.6
2023-04-25T15:18:14.357Z,45.3
2023-04-25T15:19:52.269Z,45.4
2023-04-25T15:21:06.143Z,45.7
2023-04-25T15:22:32.992Z,45.8
2023-04-25T15:23:45.930Z,46
2023-04-25T15:26:15.343Z,46.1
2023-04-25T15:28:39.257Z,46.6
2023-04-25T16:10:19.528Z,47.1
2023-04-25T16:11:20.665Z,48.5
2023-04-25T16:12:21.860Z,48.5
2023-04-25T16:13:23.049Z,48.4
2023-04-25T16:14:24.201Z,48.4
2023-04-25T16:15:25.363Z,48.5
2023-04-25T16:16:26.618Z,48.5
2023-04-25T16:17:27.798Z,48.5
2023-04-25T16:18:28.952Z,48.6
2023-04-25T16:19:30.125Z,48.7
2023-04-25T16:20:31.323Z,48.7
2023-04-25T16:21:32.471Z,48.9
2023-04-25T16:22:33.639Z,49
2023-04-25T16:23:34.807Z,49.1
2023-04-25T16:24:35.970Z,49.2
2023-04-25T16:25:37.169Z,49.3
2023-04-25T16:26:38.325Z,49.4
2023-04-25T16:27:39.726Z,49.6
2023-04-25T16:28:41.079Z,49.7
2023-04-25T16:29:42.241Z,49.9
2023-04-25T16:30:43.409Z,50.1
2023-04-25T16:31:44.843Z,50.3
2023-04-25T16:32:46.557Z,50.4
2023-04-25T16:33:47.779Z,50.6
2023-04-25T16:34:48.943Z,50.7
2023-04-25T16:35:50.121Z,50.9
2023-04-25T16:36:51.421Z,51
2023-04-25T16:37:52.908Z,51.1
2023-04-25T16:38:55.002Z,51.2
2023-04-25T16:39:56.216Z,51.2
2023-04-25T16:40:57.468Z,51.3
2023-04-25T16:41:58.587Z,51.4
2023-04-25T16:42:59.762Z,51.4
2023-04-25T16:44:00.923Z,51.5
2023-04-25T16:45:02.094Z,51.6
2023-04-25T16:46:03.258Z,51.6
2023-04-25T16:47:04.573Z,51.7
2023-04-25T16:48:05.890Z,51.7
2023-04-25T16:49:07.028Z,51.8
2023-04-25T16:50:08.200Z,51.8
2023-04-25T16:51:09.362Z,51.8
2023-04-25T16:52:10.533Z,51.9
2023-04-25T16:53:11.700Z,51.9
2023-04-25T16:54:12.869Z,52
2023-04-25T16:55:14.039Z,52
2023-04-25T16:56:15.259Z,52.1
2023-04-25T16:57:16.388Z,51.9
2023-04-25T16:58:17.563Z,51.8
2023-04-25T16:59:18.719Z,51.8
2023-04-25T17:00:19.884Z,51.9
2023-04-25T17:01:21.163Z,51.8
2023-04-25T17:02:22.499Z,51.9
2023-04-25T17:03:24.286Z,51.9
2023-04-25T17:04:26.343Z,51.9
2023-04-25T17:05:27.626Z,52
2023-04-25T17:06:28.772Z,52
2023-04-25T17:07:29.937Z,52.1
2023-04-25T17:08:31.143Z,52.1
2023-04-25T17:09:32.313Z,52.2
2023-04-25T17:10:33.470Z,52.3
2023-04-25T17:11:34.682Z,52.4
2023-04-25T17:12:35.906Z,52.6
2023-04-25T17:13:37.074Z,52.8
2023-04-25T17:14:38.242Z,53
2023-04-25T17:15:39.409Z,53.1
2023-04-25T17:16:40.880Z,53.2
2023-04-25T17:17:42.107Z,53.3